sensor_id;sensor_type;location;lat;lon;timestamp;P1;durP1;ratioP1;P2;durP2;ratioP2
8986;SDS011;4529;51.360;12.474;2023-11-21T00:01:06;2.77;;;2.20;;
8986;SDS011;4529;51.360;12.474;2023-11-21T00:06:09;4.23;;;2.10;;
8986;SDS011;4529;51.360;12.474;2023-11-21T00:11:13;3.30;;;2.30;;
8986;SDS011;4529;51.360;12.474;2023-11-21T00:16:17;2.40;;;2.20;;
8986;SDS011;4529;51.360;12.474;2023-11-21T00:21:21;2.77;;;2.40;;
8986;SDS011;4529;51.360;12.474;2023-11-21T00:26:25;2.50;;;2.10;;
8986;SDS011;4529;51.360;12.474;2023-11-21T00:31:28;2.73;;;2.47;;
8986;SDS011;4529;51.360;12.474;2023-11-21T00:36:32;2.83;;;2.50;;
8986;SDS011;4529;51.360;12.474;2023-11-21T00:41:36;4.63;;;2.53;;
8986;SDS011;4529;51.360;12.474;2023-11-21T00:46:40;3.53;;;2.70;;
8986;SDS011;4529;51.360;12.474;2023-11-21T00:51:44;3.37;;;2.30;;
8986;SDS011;4529;51.360;12.474;2023-11-21T00:56:48;3.50;;;2.70;;
8986;SDS011;4529;51.360;12.474;2023-11-21T01:01:51;3.93;;;2.40;;
8986;SDS011;4529;51.360;12.474;2023-11-21T01:06:54;2.70;;;2.40;;
8986;SDS011;4529;51.360;12.474;2023-11-21T01:11:58;2.50;;;2.30;;
8986;SDS011;4529;51.360;12.474;2023-11-21T01:17:01;2.57;;;2.30;;
8986;SDS011;4529;51.360;12.474;2023-11-21T01:22:05;2.83;;;2.07;;
8986;SDS011;4529;51.360;12.474;2023-11-21T01:27:09;3.40;;;2.67;;
8986;SDS011;4529;51.360;12.474;2023-11-21T01:32:12;2.43;;;2.23;;
8986;SDS011;4529;51.360;12.474;2023-11-21T01:37:16;3.17;;;2.60;;
8986;SDS011;4529;51.360;12.474;2023-11-21T01:42:19;3.00;;;2.23;;
8986;SDS011;4529;51.360;12.474;2023-11-21T01:47:23;3.97;;;2.40;;
8986;SDS011;4529;51.360;12.474;2023-11-21T01:52:27;3.43;;;2.33;;
8986;SDS011;4529;51.360;12.474;2023-11-21T01:57:31;2.33;;;2.10;;
8986;SDS011;4529;51.360;12.474;2023-11-21T02:02:35;2.70;;;2.30;;
8986;SDS011;4529;51.360;12.474;2023-11-21T02:07:39;4.17;;;2.13;;
8986;SDS011;4529;51.360;12.474;2023-11-21T02:12:42;4.57;;;2.47;;
8986;SDS011;4529;51.360;12.474;2023-11-21T02:17:49;2.53;;;1.90;;
8986;SDS011;4529;51.360;12.474;2023-11-21T02:22:52;4.13;;;2.30;;
8986;SDS011;4529;51.360;12.474;2023-11-21T02:27:57;3.80;;;2.33;;
8986;SDS011;4529;51.360;12.474;2023-11-21T02:33:01;2.77;;;2.43;;
8986;SDS011;4529;51.360;12.474;2023-11-21T02:38:04;2.40;;;2.20;;
8986;SDS011;4529;51.360;12.474;2023-11-21T02:43:08;2.73;;;2.53;;
8986;SDS011;4529;51.360;12.474;2023-11-21T02:48:12;3.27;;;2.50;;
8986;SDS011;4529;51.360;12.474;2023-11-21T02:53:16;5.53;;;2.50;;
8986;SDS011;4529;51.360;12.474;2023-11-21T02:58:20;4.27;;;2.50;;
8986;SDS011;4529;51.360;12.474;2023-11-21T03:03:24;2.97;;;2.30;;
8986;SDS011;4529;51.360;12.474;2023-11-21T03:08:28;5.27;;;2.97;;
8986;SDS011;4529;51.360;12.474;2023-11-21T03:13:31;5.40;;;3.50;;
8986;SDS011;4529;51.360;12.474;2023-11-21T03:18:35;4.37;;;2.70;;
8986;SDS011;4529;51.360;12.474;2023-11-21T03:23:39;2.90;;;2.27;;
8986;SDS011;4529;51.360;12.474;2023-11-21T03:28:43;3.37;;;2.20;;
8986;SDS011;4529;51.360;12.474;2023-11-21T03:33:46;3.30;;;2.40;;
8986;SDS011;4529;51.360;12.474;2023-11-21T03:38:50;3.03;;;2.40;;
8986;SDS011;4529;51.360;12.474;2023-11-21T03:43:53;4.10;;;2.50;;
8986;SDS011;4529;51.360;12.474;2023-11-21T03:48:57;4.10;;;2.60;;
8986;SDS011;4529;51.360;12.474;2023-11-21T03:54:02;4.53;;;2.60;;
8986;SDS011;4529;51.360;12.474;2023-11-21T03:59:06;3.77;;;2.77;;
8986;SDS011;4529;51.360;12.474;2023-11-21T04:04:10;3.87;;;2.57;;
8986;SDS011;4529;51.360;12.474;2023-11-21T04:09:13;4.37;;;2.93;;
8986;SDS011;4529;51.360;12.474;2023-11-21T04:14:17;5.67;;;2.70;;
8986;SDS011;4529;51.360;12.474;2023-11-21T04:19:20;4.30;;;2.60;;
8986;SDS011;4529;51.360;12.474;2023-11-21T04:24:24;3.10;;;2.20;;
8986;SDS011;4529;51.360;12.474;2023-11-21T04:29:27;3.57;;;2.37;;
8986;SDS011;4529;51.360;12.474;2023-11-21T04:34:31;5.87;;;2.33;;
8986;SDS011;4529;51.360;12.474;2023-11-21T04:39:35;4.13;;;2.27;;
8986;SDS011;4529;51.360;12.474;2023-11-21T04:44:39;3.70;;;2.20;;
8986;SDS011;4529;51.360;12.474;2023-11-21T04:49:42;4.90;;;2.50;;
8986;SDS011;4529;51.360;12.474;2023-11-21T04:54:46;4.10;;;2.40;;
8986;SDS011;4529;51.360;12.474;2023-11-21T04:59:49;4.10;;;2.70;;
8986;SDS011;4529;51.360;12.474;2023-11-21T05:04:52;3.93;;;2.50;;
8986;SDS011;4529;51.360;12.474;2023-11-21T05:09:57;4.27;;;3.17;;
8986;SDS011;4529;51.360;12.474;2023-11-21T05:15:00;4.20;;;2.70;;
8986;SDS011;4529;51.360;12.474;2023-11-21T05:20:04;3.70;;;3.00;;
8986;SDS011;4529;51.360;12.474;2023-11-21T05:25:07;4.73;;;3.10;;
8986;SDS011;4529;51.360;12.474;2023-11-21T05:30:12;5.83;;;3.07;;
8986;SDS011;4529;51.360;12.474;2023-11-21T05:35:16;4.30;;;2.93;;
8986;SDS011;4529;51.360;12.474;2023-11-21T05:40:20;4.07;;;3.10;;
8986;SDS011;4529;51.360;12.474;2023-11-21T05:45:24;6.10;;;3.50;;
8986;SDS011;4529;51.360;12.474;2023-11-21T05:50:28;5.17;;;3.40;;
8986;SDS011;4529;51.360;12.474;2023-11-21T05:55:32;6.77;;;3.40;;
8986;SDS011;4529;51.360;12.474;2023-11-21T06:00:36;5.93;;;3.17;;
8986;SDS011;4529;51.360;12.474;2023-11-21T06:05:40;4.90;;;3.30;;
8986;SDS011;4529;51.360;12.474;2023-11-21T06:10:44;6.67;;;3.50;;
8986;SDS011;4529;51.360;12.474;2023-11-21T06:15:47;7.00;;;3.80;;
8986;SDS011;4529;51.360;12.474;2023-11-21T06:20:51;6.47;;;3.53;;
8986;SDS011;4529;51.360;12.474;2023-11-21T06:25:55;6.83;;;3.63;;
8986;SDS011;4529;51.360;12.474;2023-11-21T06:30:59;6.67;;;3.90;;
8986;SDS011;4529;51.360;12.474;2023-11-21T06:36:03;5.60;;;3.93;;
8986;SDS011;4529;51.360;12.474;2023-11-21T06:41:07;5.47;;;3.77;;
8986;SDS011;4529;51.360;12.474;2023-11-21T06:46:10;6.97;;;4.37;;
8986;SDS011;4529;51.360;12.474;2023-11-21T06:51:14;5.67;;;4.33;;
8986;SDS011;4529;51.360;12.474;2023-11-21T06:56:17;8.50;;;4.90;;
8986;SDS011;4529;51.360;12.474;2023-11-21T07:01:21;7.53;;;4.70;;
8986;SDS011;4529;51.360;12.474;2023-11-21T07:06:25;9.13;;;5.10;;
8986;SDS011;4529;51.360;12.474;2023-11-21T07:11:29;8.53;;;4.93;;
8986;SDS011;4529;51.360;12.474;2023-11-21T07:16:37;6.47;;;5.40;;
8986;SDS011;4529;51.360;12.474;2023-11-21T07:21:38;7.40;;;5.10;;
8986;SDS011;4529;51.360;12.474;2023-11-21T07:26:42;6.40;;;4.87;;
8986;SDS011;4529;51.360;12.474;2023-11-21T07:31:46;9.33;;;5.80;;
8986;SDS011;4529;51.360;12.474;2023-11-21T07:36:49;9.47;;;7.23;;
8986;SDS011;4529;51.360;12.474;2023-11-21T07:41:54;14.47;;;9.47;;
8986;SDS011;4529;51.360;12.474;2023-11-21T07:46:59;11.63;;;9.10;;
8986;SDS011;4529;51.360;12.474;2023-11-21T07:52:03;13.13;;;9.20;;
8986;SDS011;4529;51.360;12.474;2023-11-21T07:57:07;11.93;;;8.27;;
8986;SDS011;4529;51.360;12.474;2023-11-21T08:02:10;8.67;;;7.17;;
8986;SDS011;4529;51.360;12.474;2023-11-21T08:07:14;10.60;;;6.23;;
8986;SDS011;4529;51.360;12.474;2023-11-21T08:12:17;6.03;;;5.43;;
8986;SDS011;4529;51.360;12.474;2023-11-21T08:17:21;6.57;;;5.00;;
8986;SDS011;4529;51.360;12.474;2023-11-21T08:22:25;7.73;;;5.40;;
8986;SDS011;4529;51.360;12.474;2023-11-21T08:27:29;6.93;;;5.67;;
8986;SDS011;4529;51.360;12.474;2023-11-21T08:32:33;7.50;;;5.50;;
8986;SDS011;4529;51.360;12.474;2023-11-21T08:37:38;6.37;;;5.10;;
8986;SDS011;4529;51.360;12.474;2023-11-21T08:42:42;7.30;;;5.33;;
8986;SDS011;4529;51.360;12.474;2023-11-21T08:47:45;7.03;;;5.43;;
8986;SDS011;4529;51.360;12.474;2023-11-21T08:52:49;7.93;;;6.07;;
8986;SDS011;4529;51.360;12.474;2023-11-21T08:57:52;7.93;;;5.90;;
8986;SDS011;4529;51.360;12.474;2023-11-21T09:02:56;8.30;;;6.30;;
8986;SDS011;4529;51.360;12.474;2023-11-21T09:08:00;9.33;;;6.50;;
8986;SDS011;4529;51.360;12.474;2023-11-21T09:13:04;11.53;;;7.00;;
8986;SDS011;4529;51.360;12.474;2023-11-21T09:18:09;11.80;;;7.07;;
8986;SDS011;4529;51.360;12.474;2023-11-21T09:23:13;11.83;;;7.40;;
8986;SDS011;4529;51.360;12.474;2023-11-21T09:28:17;6.30;;;4.27;;
8986;SDS011;4529;51.360;12.474;2023-11-21T09:33:21;5.20;;;3.50;;
8986;SDS011;4529;51.360;12.474;2023-11-21T09:38:25;4.63;;;3.33;;
8986;SDS011;4529;51.360;12.474;2023-11-21T09:43:28;8.10;;;4.77;;
8986;SDS011;4529;51.360;12.474;2023-11-21T09:48:31;5.23;;;4.57;;
8986;SDS011;4529;51.360;12.474;2023-11-21T09:53:35;5.67;;;4.97;;
8986;SDS011;4529;51.360;12.474;2023-11-21T09:58:39;5.33;;;4.83;;
8986;SDS011;4529;51.360;12.474;2023-11-21T10:03:44;5.70;;;2.80;;
8986;SDS011;4529;51.360;12.474;2023-11-21T10:08:48;3.40;;;3.00;;
8986;SDS011;4529;51.360;12.474;2023-11-21T10:13:54;3.90;;;3.30;;
8986;SDS011;4529;51.360;12.474;2023-11-21T10:18:58;3.07;;;2.77;;
8986;SDS011;4529;51.360;12.474;2023-11-21T10:24:02;5.63;;;4.03;;
8986;SDS011;4529;51.360;12.474;2023-11-21T10:29:05;5.13;;;4.03;;
8986;SDS011;4529;51.360;12.474;2023-11-21T10:34:15;5.73;;;4.70;;
8986;SDS011;4529;51.360;12.474;2023-11-21T10:39:19;5.30;;;4.17;;
8986;SDS011;4529;51.360;12.474;2023-11-21T10:44:23;5.17;;;4.30;;
8986;SDS011;4529;51.360;12.474;2023-11-21T10:49:27;4.60;;;4.00;;
8986;SDS011;4529;51.360;12.474;2023-11-21T10:54:31;10.13;;;7.43;;
8986;SDS011;4529;51.360;12.474;2023-11-21T10:59:35;14.23;;;9.10;;
8986;SDS011;4529;51.360;12.474;2023-11-21T11:04:38;14.50;;;8.90;;
8986;SDS011;4529;51.360;12.474;2023-11-21T11:09:42;14.53;;;9.03;;
8986;SDS011;4529;51.360;12.474;2023-11-21T11:14:45;13.70;;;9.10;;
8986;SDS011;4529;51.360;12.474;2023-11-21T11:19:48;14.40;;;9.87;;
8986;SDS011;4529;51.360;12.474;2023-11-21T11:24:57;13.90;;;9.07;;
8986;SDS011;4529;51.360;12.474;2023-11-21T11:35:24;13.20;;;9.50;;
8986;SDS011;4529;51.360;12.474;2023-11-21T11:40:41;12.97;;;8.23;;
8986;SDS011;4529;51.360;12.474;2023-11-21T11:45:44;11.60;;;7.53;;
8986;SDS011;4529;51.360;12.474;2023-11-21T11:56:25;8.93;;;5.90;;
8986;SDS011;4529;51.360;12.474;2023-11-21T12:01:28;7.83;;;5.90;;
8986;SDS011;4529;51.360;12.474;2023-11-21T12:06:33;7.00;;;5.03;;
8986;SDS011;4529;51.360;12.474;2023-11-21T12:11:38;6.93;;;5.50;;
8986;SDS011;4529;51.360;12.474;2023-11-21T12:16:42;5.30;;;4.73;;
8986;SDS011;4529;51.360;12.474;2023-11-21T12:21:45;7.90;;;5.10;;
8986;SDS011;4529;51.360;12.474;2023-11-21T12:26:49;6.37;;;4.80;;
8986;SDS011;4529;51.360;12.474;2023-11-21T12:31:53;7.53;;;5.30;;
8986;SDS011;4529;51.360;12.474;2023-11-21T12:36:57;6.50;;;5.30;;
8986;SDS011;4529;51.360;12.474;2023-11-21T12:42:00;8.27;;;6.20;;
8986;SDS011;4529;51.360;12.474;2023-11-21T12:47:04;8.37;;;6.10;;
8986;SDS011;4529;51.360;12.474;2023-11-21T12:52:07;8.97;;;6.70;;
8986;SDS011;4529;51.360;12.474;2023-11-21T12:57:11;9.47;;;6.50;;
8986;SDS011;4529;51.360;12.474;2023-11-21T13:02:14;10.67;;;6.53;;
8986;SDS011;4529;51.360;12.474;2023-11-21T13:07:18;11.07;;;6.67;;
8986;SDS011;4529;51.360;12.474;2023-11-21T13:12:24;9.07;;;6.80;;
8986;SDS011;4529;51.360;12.474;2023-11-21T13:17:28;8.63;;;6.67;;
8986;SDS011;4529;51.360;12.474;2023-11-21T13:22:31;8.60;;;6.10;;
8986;SDS011;4529;51.360;12.474;2023-11-21T13:27:35;7.37;;;5.97;;
8986;SDS011;4529;51.360;12.474;2023-11-21T13:32:39;6.70;;;5.37;;
8986;SDS011;4529;51.360;12.474;2023-11-21T13:37:43;8.03;;;5.23;;
8986;SDS011;4529;51.360;12.474;2023-11-21T13:42:48;6.53;;;4.70;;
8986;SDS011;4529;51.360;12.474;2023-11-21T13:47:51;6.63;;;4.97;;
8986;SDS011;4529;51.360;12.474;2023-11-21T13:52:54;6.80;;;4.77;;
8986;SDS011;4529;51.360;12.474;2023-11-21T13:57:57;5.63;;;4.93;;
8986;SDS011;4529;51.360;12.474;2023-11-21T14:03:02;6.43;;;4.90;;
8986;SDS011;4529;51.360;12.474;2023-11-21T14:08:06;6.20;;;4.67;;
8986;SDS011;4529;51.360;12.474;2023-11-21T14:13:10;5.67;;;4.57;;
8986;SDS011;4529;51.360;12.474;2023-11-21T14:18:14;5.87;;;4.60;;
8986;SDS011;4529;51.360;12.474;2023-11-21T14:23:17;5.37;;;4.50;;
8986;SDS011;4529;51.360;12.474;2023-11-21T14:28:21;4.37;;;3.97;;
8986;SDS011;4529;51.360;12.474;2023-11-21T14:33:24;4.30;;;3.90;;
8986;SDS011;4529;51.360;12.474;2023-11-21T14:38:28;4.50;;;3.40;;
8986;SDS011;4529;51.360;12.474;2023-11-21T14:43:33;3.27;;;2.93;;
8986;SDS011;4529;51.360;12.474;2023-11-21T14:48:37;3.23;;;2.93;;
8986;SDS011;4529;51.360;12.474;2023-11-21T14:53:41;3.90;;;3.30;;
8986;SDS011;4529;51.360;12.474;2023-11-21T14:58:45;3.80;;;3.30;;
8986;SDS011;4529;51.360;12.474;2023-11-21T15:03:48;3.37;;;3.07;;
8986;SDS011;4529;51.360;12.474;2023-11-21T15:08:55;3.40;;;3.10;;
8986;SDS011;4529;51.360;12.474;2023-11-21T15:13:56;3.27;;;2.97;;
8986;SDS011;4529;51.360;12.474;2023-11-21T15:18:59;3.67;;;3.10;;
8986;SDS011;4529;51.360;12.474;2023-11-21T15:24:03;3.50;;;3.20;;
8986;SDS011;4529;51.360;12.474;2023-11-21T15:29:06;4.10;;;3.20;;
8986;SDS011;4529;51.360;12.474;2023-11-21T15:34:11;4.17;;;3.00;;
8986;SDS011;4529;51.360;12.474;2023-11-21T15:39:15;3.63;;;3.33;;
8986;SDS011;4529;51.360;12.474;2023-11-21T15:44:18;4.20;;;3.57;;
8986;SDS011;4529;51.360;12.474;2023-11-21T15:49:22;4.67;;;3.10;;
8986;SDS011;4529;51.360;12.474;2023-11-21T15:54:25;3.47;;;3.17;;
8986;SDS011;4529;51.360;12.474;2023-11-21T15:59:28;3.67;;;3.17;;
8986;SDS011;4529;51.360;12.474;2023-11-21T16:04:32;2.97;;;2.77;;
8986;SDS011;4529;51.360;12.474;2023-11-21T16:09:36;4.20;;;3.10;;
8986;SDS011;4529;51.360;12.474;2023-11-21T16:14:40;3.27;;;2.97;;
8986;SDS011;4529;51.360;12.474;2023-11-21T16:19:44;3.60;;;3.20;;
8986;SDS011;4529;51.360;12.474;2023-11-21T16:24:47;3.50;;;3.20;;
8986;SDS011;4529;51.360;12.474;2023-11-21T16:29:51;3.27;;;2.97;;
8986;SDS011;4529;51.360;12.474;2023-11-21T16:34:55;3.40;;;3.10;;
8986;SDS011;4529;51.360;12.474;2023-11-21T16:39:59;3.40;;;3.10;;
8986;SDS011;4529;51.360;12.474;2023-11-21T16:45:04;3.67;;;3.30;;
8986;SDS011;4529;51.360;12.474;2023-11-21T16:50:07;3.67;;;3.37;;
8986;SDS011;4529;51.360;12.474;2023-11-21T16:55:11;5.47;;;3.47;;
8986;SDS011;4529;51.360;12.474;2023-11-21T17:00:15;3.40;;;3.10;;
8986;SDS011;4529;51.360;12.474;2023-11-21T17:05:19;3.17;;;2.87;;
8986;SDS011;4529;51.360;12.474;2023-11-21T17:10:23;3.80;;;3.20;;
8986;SDS011;4529;51.360;12.474;2023-11-21T17:15:27;5.10;;;3.80;;
8986;SDS011;4529;51.360;12.474;2023-11-21T17:20:30;4.67;;;3.60;;
8986;SDS011;4529;51.360;12.474;2023-11-21T17:25:35;4.13;;;3.43;;
8986;SDS011;4529;51.360;12.474;2023-11-21T17:30:37;4.47;;;3.47;;
8986;SDS011;4529;51.360;12.474;2023-11-21T17:35:40;4.20;;;3.77;;
8986;SDS011;4529;51.360;12.474;2023-11-21T17:40:45;3.63;;;2.93;;
8986;SDS011;4529;51.360;12.474;2023-11-21T17:45:48;3.20;;;2.90;;
8986;SDS011;4529;51.360;12.474;2023-11-21T17:50:51;2.87;;;2.67;;
8986;SDS011;4529;51.360;12.474;2023-11-21T17:55:55;3.07;;;2.73;;
8986;SDS011;4529;51.360;12.474;2023-11-21T18:00:59;3.37;;;3.07;;
8986;SDS011;4529;51.360;12.474;2023-11-21T18:06:04;3.67;;;3.17;;
8986;SDS011;4529;51.360;12.474;2023-11-21T18:11:07;3.47;;;3.17;;
8986;SDS011;4529;51.360;12.474;2023-11-21T18:16:10;3.87;;;3.47;;
8986;SDS011;4529;51.360;12.474;2023-11-21T18:21:14;5.63;;;4.23;;
8986;SDS011;4529;51.360;12.474;2023-11-21T18:26:17;4.40;;;4.00;;
8986;SDS011;4529;51.360;12.474;2023-11-21T18:31:21;5.03;;;4.03;;
8986;SDS011;4529;51.360;12.474;2023-11-21T18:36:25;6.57;;;4.40;;
8986;SDS011;4529;51.360;12.474;2023-11-21T18:41:28;8.37;;;5.73;;
8986;SDS011;4529;51.360;12.474;2023-11-21T18:46:38;6.60;;;5.57;;
8986;SDS011;4529;51.360;12.474;2023-11-21T18:51:44;7.00;;;6.00;;
8986;SDS011;4529;51.360;12.474;2023-11-21T18:56:46;6.87;;;5.67;;
8986;SDS011;4529;51.360;12.474;2023-11-21T19:01:49;8.50;;;6.10;;
8986;SDS011;4529;51.360;12.474;2023-11-21T19:06:53;9.23;;;6.77;;
8986;SDS011;4529;51.360;12.474;2023-11-21T19:11:57;7.90;;;6.30;;
8986;SDS011;4529;51.360;12.474;2023-11-21T19:17:01;9.13;;;6.80;;
8986;SDS011;4529;51.360;12.474;2023-11-21T19:22:04;9.17;;;7.17;;
8986;SDS011;4529;51.360;12.474;2023-11-21T19:27:08;12.43;;;9.10;;
8986;SDS011;4529;51.360;12.474;2023-11-21T19:32:11;10.83;;;8.07;;
8986;SDS011;4529;51.360;12.474;2023-11-21T19:37:15;11.73;;;8.33;;
8986;SDS011;4529;51.360;12.474;2023-11-21T19:42:18;15.00;;;9.57;;
8986;SDS011;4529;51.360;12.474;2023-11-21T19:47:22;14.20;;;9.13;;
8986;SDS011;4529;51.360;12.474;2023-11-21T19:52:26;13.53;;;8.60;;
8986;SDS011;4529;51.360;12.474;2023-11-21T19:57:31;14.43;;;9.60;;
8986;SDS011;4529;51.360;12.474;2023-11-21T20:02:35;12.60;;;9.10;;
8986;SDS011;4529;51.360;12.474;2023-11-21T20:07:39;11.90;;;8.40;;
8986;SDS011;4529;51.360;12.474;2023-11-21T20:12:43;11.57;;;8.43;;
8986;SDS011;4529;51.360;12.474;2023-11-21T20:17:46;10.83;;;8.17;;
8986;SDS011;4529;51.360;12.474;2023-11-21T20:22:50;12.10;;;9.00;;
8986;SDS011;4529;51.360;12.474;2023-11-21T20:27:54;12.67;;;9.53;;
8986;SDS011;4529;51.360;12.474;2023-11-21T20:32:57;11.87;;;9.00;;
8986;SDS011;4529;51.360;12.474;2023-11-21T20:38:00;12.73;;;9.53;;
8986;SDS011;4529;51.360;12.474;2023-11-21T20:43:04;12.10;;;8.90;;
8986;SDS011;4529;51.360;12.474;2023-11-21T20:48:08;9.60;;;8.13;;
8986;SDS011;4529;51.360;12.474;2023-11-21T20:53:13;9.93;;;7.40;;
8986;SDS011;4529;51.360;12.474;2023-11-21T20:58:16;9.60;;;7.27;;
8986;SDS011;4529;51.360;12.474;2023-11-21T21:03:19;9.37;;;7.40;;
8986;SDS011;4529;51.360;12.474;2023-11-21T21:08:23;8.50;;;6.63;;
8986;SDS011;4529;51.360;12.474;2023-11-21T21:13:27;9.47;;;6.97;;
8986;SDS011;4529;51.360;12.474;2023-11-21T21:18:31;9.93;;;7.40;;
8986;SDS011;4529;51.360;12.474;2023-11-21T21:23:35;10.13;;;7.60;;
8986;SDS011;4529;51.360;12.474;2023-11-21T21:28:39;9.23;;;6.20;;
8986;SDS011;4529;51.360;12.474;2023-11-21T21:33:43;11.20;;;6.80;;
8986;SDS011;4529;51.360;12.474;2023-11-21T21:38:46;9.87;;;6.90;;
8986;SDS011;4529;51.360;12.474;2023-11-21T21:43:50;9.77;;;7.13;;
8986;SDS011;4529;51.360;12.474;2023-11-21T21:48:54;10.60;;;7.40;;
8986;SDS011;4529;51.360;12.474;2023-11-21T21:53:58;10.30;;;7.73;;
8986;SDS011;4529;51.360;12.474;2023-11-21T21:59:02;11.07;;;6.47;;
8986;SDS011;4529;51.360;12.474;2023-11-21T22:04:06;8.60;;;6.57;;
8986;SDS011;4529;51.360;12.474;2023-11-21T22:09:10;10.37;;;6.53;;
8986;SDS011;4529;51.360;12.474;2023-11-21T22:14:15;13.50;;;7.07;;
8986;SDS011;4529;51.360;12.474;2023-11-21T22:19:18;10.13;;;6.50;;
8986;SDS011;4529;51.360;12.474;2023-11-21T22:24:21;9.30;;;6.50;;
8986;SDS011;4529;51.360;12.474;2023-11-21T22:29:25;9.97;;;6.70;;
8986;SDS011;4529;51.360;12.474;2023-11-21T22:34:28;13.10;;;6.83;;
8986;SDS011;4529;51.360;12.474;2023-11-21T22:39:32;12.07;;;6.87;;
8986;SDS011;4529;51.360;12.474;2023-11-21T22:44:37;11.07;;;7.03;;
8986;SDS011;4529;51.360;12.474;2023-11-21T22:49:43;11.53;;;6.67;;
8986;SDS011;4529;51.360;12.474;2023-11-21T22:54:46;8.17;;;5.93;;
8986;SDS011;4529;51.360;12.474;2023-11-21T22:59:50;11.07;;;6.17;;
8986;SDS011;4529;51.360;12.474;2023-11-21T23:04:55;8.10;;;5.50;;
8986;SDS011;4529;51.360;12.474;2023-11-21T23:09:58;8.97;;;6.10;;
8986;SDS011;4529;51.360;12.474;2023-11-21T23:15:02;8.23;;;5.63;;
8986;SDS011;4529;51.360;12.474;2023-11-21T23:20:06;8.40;;;5.83;;
8986;SDS011;4529;51.360;12.474;2023-11-21T23:25:09;10.40;;;5.70;;
8986;SDS011;4529;51.360;12.474;2023-11-21T23:30:13;6.50;;;4.63;;
8986;SDS011;4529;51.360;12.474;2023-11-21T23:35:16;6.20;;;4.53;;
8986;SDS011;4529;51.360;12.474;2023-11-21T23:40:20;7.37;;;5.10;;
8986;SDS011;4529;51.360;12.474;2023-11-21T23:45:24;6.30;;;4.77;;
8986;SDS011;4529;51.360;12.474;2023-11-21T23:50:27;9.57;;;5.20;;
8986;SDS011;4529;51.360;12.474;2023-11-21T23:55:31;5.83;;;4.40;;
